Back to Top
Banner_Quays_at_Mast_2020.jpeg
Banner_VERITY.jpeg
Banner_P42_Kinsale_2004.jpeg
Superyacht_SCOUT.jpg
Kinsale_Trawlers_Banner.jpeg
previous arrow
next arrow

Port Arrivals Report (AIS)

This report is generated from collected AIS (Automated Identification System) signals from vessels entering port.

IMO MMSI Class Flag Vessel Name Vessel type Nav Status Destination Call Sign Latitude Longitude Speed (kts) Course (T) Draught (m) LOA (m) Beam (m) Timestamp
0 235108701 B GB HISSY FIT SAILING. - 2IDB8 51.6876 -8.49823 7.4 6.7 0 15 8 2024-07-02 11:10:57
0 232016609 B GB RNLI LIFEBOAT B-909 SAR. - 51.6887 -8.50089 7 342.4 0 8 2 2024-07-01 20:52:33
0 250002369 B IE JAVA SAILING. - EILA2 51.6875 -8.49683 2.1 355.4 0 11 4 2024-07-01 17:53:13
0 244670781 B NL L'ESPIRIT Pleasure craft - PG4974 51.6879 -8.49875 4.4 351.8 0 11 4 2024-07-01 17:31:56
0 250001433 B IE BYZANTIUM Pleasure craft - EI7873 51.6889 -8.50014 4.7 354.2 0 13 5 2024-07-01 16:34:45
0 235056679 B GB SKYBIRD SAILING. - MCUM2 51.6873 -8.49971 1.6 324.4 0 10 4 2024-07-01 15:43:53
0 232011003 B GB IRENE R Pleasure craft - MDRF2 51.6893 -8.49845 5.5 355.2 0 11 4 2024-07-01 14:39:17
0 227773740 B FR CANGA SAILING. - FGF9590 51.6874 -8.49558 5.8 0.1 0 12 4 2024-07-01 14:11:55
0 250005517 B IE HAFOD Pleasure craft - EI-VE-3 51.6872 -8.50043 5.5 346.2 0 10 3 2024-07-01 12:32:06
0 235015274 B GB AN EALA MHOR SAILING. - MDQC6 51.6879 -8.4989 5 9.5 0 15 4 2024-07-01 12:22:56
0 250001143 A IE JERH O'D FISHING. Undefined EICX6 51.6885 -8.49701 7.3 343.8 3.4 22 7 2024-07-01 06:38:38
0 50000954 A 500 JENNY M FISHING. Engaged in Fishing EIBN6 51.6876 -8.49853 7.1 344.5 0 19 4 2024-07-01 05:15:36
0 250001206 B IE CAPELLA OF KINSALE SAILING. - EIDI6 51.6873 -8.4945 3.4 342.2 0 12 4 2024-06-30 19:03:51
0 244077901 B NL GEMINI Pleasure craft - PH7947 51.6881 -8.49922 4 352 0 10 3 2024-06-30 18:28:01
0 227034580 B FR CIPANGO SAILING. - FGG6321 51.6876 -8.49931 2.9 353.9 0 12 4 2024-06-30 17:32:58
0 232016609 B GB RNLI LIFEBOAT B-909 SAR. - 51.6878 -8.50026 4.1 347.3 0 8 2 2024-06-30 16:51:59
0 250103750 B IE HARPY DREDGING / UNDERWATER Ops. - EI7410 51.6882 -8.50229 7.6 346.9 0 13 4 2024-06-30 16:51:22
0 250003474 B IE CHATTERBOX SAILING. - EI-QH-7 51.6886 -8.49984 5 0.4 0 0 0 2024-06-30 16:49:15
0 250003474 B IE CHATTERBOX SAILING. - EI-QH-7 51.6874 -8.50044 1.4 4.8 0 0 0 2024-06-30 16:43:51
0 235072984 B GB TRIPLE D OF CHIDAM SAILING. - 2C1B8 51.6882 -8.50019 4.8 346.2 0 13 4 2024-06-30 16:42:48